Terminal Aerodrome Forecast
Issued by NWS Quad Cities IA IL

Home | Current Version | Previous Version | Text Only | Print | Product List | Glossary On
Versions: 1 2 3 4 5 6 7 8 9 10 11 12 13 14 15 16 17 18 19 20 21 22 23 24 25 26
000
FTUS43 KDVN 282300
TAFDBQ
TAF
KDBQ 282328Z 2900/2924 15015G22KT P6SM BKN150
     FM290100 14012KT 6SM BR BKN150
     FM290600 14010KT 4SM BR OVC015
     FM290900 33013G22KT 4SM BR OVC009
     FM291400 32021G31KT P6SM OVC012=

USA.gov is the U.S. government's official web portal to all federal, state and local government web resources and services.